createdAt,value
2018-11-13T00:00:20.100Z,99.99
2018-11-13T00:01:20.243Z,99.99
2018-11-13T00:02:20.217Z,99.99
2018-11-13T00:03:20.208Z,99.99
2018-11-13T00:04:20.250Z,99.99
2018-11-13T00:05:20.185Z,99.99
2018-11-13T00:06:20.243Z,99.99
2018-11-13T00:07:20.304Z,99.99
2018-11-13T00:08:20.192Z,99.99
2018-11-13T00:09:20.148Z,99.99
2018-11-13T00:10:20.168Z,99.99
2018-11-13T00:11:20.292Z,99.99
2018-11-13T00:12:20.181Z,99.99
2018-11-13T00:13:20.088Z,99.99
2018-11-13T00:14:20.105Z,99.99
2018-11-13T00:15:20.138Z,99.99
2018-11-13T00:16:20.127Z,99.99
2018-11-13T00:17:20.190Z,99.99
2018-11-13T00:18:20.124Z,99.99
2018-11-13T00:19:20.067Z,99.99
2018-11-13T00:20:20.049Z,99.99
2018-11-13T00:21:20.030Z,99.99
2018-11-13T00:22:20.034Z,99.99
2018-11-13T00:23:20.004Z,99.99
2018-11-13T00:24:20.051Z,99.99
2018-11-13T00:25:19.971Z,99.99
2018-11-13T00:26:19.980Z,99.99
2018-11-13T00:27:20.065Z,99.99
2018-11-13T00:28:20.006Z,99.99
2018-11-13T00:29:19.984Z,99.99
2018-11-13T00:30:20.009Z,99.99
2018-11-13T00:31:19.983Z,99.99
2018-11-13T00:32:20.058Z,99.99
2018-11-13T00:33:19.911Z,99.99
2018-11-13T00:34:19.907Z,99.99
2018-11-13T00:35:19.887Z,99.99
2018-11-13T00:36:19.857Z,99.99
2018-11-13T00:37:19.987Z,99.99
2018-11-13T00:38:19.856Z,99.99
2018-11-13T00:39:20.418Z,99.99
2018-11-13T00:40:19.798Z,99.99
2018-11-13T00:41:19.832Z,99.99
2018-11-13T00:42:19.943Z,99.99
2018-11-13T00:43:19.761Z,99.99
2018-11-13T00:44:19.810Z,99.99
2018-11-13T00:45:19.816Z,99.99
2018-11-13T00:46:19.713Z,99.99
2018-11-13T00:47:19.741Z,99.99
2018-11-13T00:48:19.645Z,99.99
2018-11-13T00:49:19.783Z,99.99
2018-11-13T00:50:19.719Z,99.99
2018-11-13T00:51:19.743Z,99.99
2018-11-13T00:52:19.745Z,99.99
2018-11-13T00:53:19.777Z,99.99
2018-11-13T00:54:19.711Z,99.99
2018-11-13T00:55:19.781Z,99.99
2018-11-13T00:56:19.700Z,99.99
2018-11-13T00:57:19.685Z,99.99
2018-11-13T00:58:19.791Z,99.99
2018-11-13T00:59:19.750Z,99.99
2018-11-13T01:00:19.732Z,99.99
2018-11-13T01:01:19.591Z,99.99
2018-11-13T01:02:19.630Z,99.99
2018-11-13T01:03:19.765Z,99.99
2018-11-13T01:04:19.599Z,99.99
2018-11-13T01:05:19.620Z,99.99
2018-11-13T01:06:19.605Z,99.99
2018-11-13T01:07:19.608Z,99.99
2018-11-13T01:08:19.673Z,99.99
2018-11-13T01:09:19.570Z,99.99
2018-11-13T01:10:19.541Z,99.99
2018-11-13T01:11:19.482Z,99.99
2018-11-13T01:12:19.469Z,99.99
2018-11-13T01:13:19.639Z,99.99
2018-11-13T01:14:19.531Z,99.99
2018-11-13T01:15:19.463Z,99.99
2018-11-13T01:16:19.477Z,99.99
2018-11-13T01:17:19.502Z,99.99
2018-11-13T01:18:20.082Z,99.99
2018-11-13T01:19:19.445Z,99.99
2018-11-13T01:20:19.422Z,99.99
2018-11-13T01:21:19.471Z,99.99
2018-11-13T01:22:19.471Z,99.99
2018-11-13T01:23:19.568Z,99.99
2018-11-13T01:24:19.479Z,99.99
2018-11-13T01:25:19.397Z,99.99
2018-11-13T01:26:19.337Z,99.99
2018-11-13T01:27:19.364Z,99.99
2018-11-13T01:28:19.509Z,99.99
2018-11-13T01:29:19.311Z,99.99
2018-11-13T01:30:19.180Z,99.99
2018-11-13T01:31:19.303Z,99.99
2018-11-13T01:32:19.332Z,99.99
2018-11-13T01:33:19.356Z,99.99
2018-11-13T01:34:19.278Z,99.99
2018-11-13T01:35:19.255Z,99.99
2018-11-13T01:36:19.297Z,99.99
2018-11-13T01:37:19.250Z,99.99
2018-11-13T01:38:19.334Z,99.99
2018-11-13T01:39:19.196Z,99.99
2018-11-13T01:40:19.234Z,99.99
2018-11-13T01:41:19.198Z,99.99
2018-11-13T01:42:19.178Z,99.99
2018-11-13T01:43:19.265Z,99.99
2018-11-13T01:44:19.197Z,99.99
2018-11-13T01:45:19.200Z,99.99
2018-11-13T01:46:19.188Z,99.99
2018-11-13T01:47:19.142Z,99.99
2018-11-13T01:48:19.217Z,99.99
2018-11-13T01:49:19.136Z,99.99
2018-11-13T01:50:19.103Z,99.99
2018-11-13T01:51:19.091Z,99.99
2018-11-13T01:52:19.123Z,99.99
2018-11-13T01:53:19.241Z,99.99
2018-11-13T01:54:19.091Z,99.99
2018-11-13T01:55:19.045Z,99.99
2018-11-13T01:56:19.047Z,99.99
2018-11-13T01:57:19.057Z,99.99
2018-11-13T01:58:19.542Z,99.99
2018-11-13T01:59:19.010Z,99.99
2018-11-13T02:00:19.015Z,99.99
2018-11-13T02:01:18.983Z,99.99
2018-11-13T02:02:19.012Z,99.99
2018-11-13T02:03:19.125Z,99.99
2018-11-13T02:04:18.973Z,99.99
2018-11-13T02:05:18.966Z,99.99
2018-11-13T02:06:18.954Z,99.99
2018-11-13T02:07:18.919Z,99.99
2018-11-13T02:08:19.034Z,99.99
2018-11-13T02:09:18.924Z,99.99
2018-11-13T02:10:18.918Z,99.99
2018-11-13T02:11:18.941Z,99.99
2018-11-13T02:12:18.909Z,99.99
2018-11-13T02:13:18.934Z,99.99
2018-11-13T02:14:18.875Z,99.99
2018-11-13T02:15:18.870Z,99.99
2018-11-13T02:16:18.851Z,99.99
2018-11-13T02:17:18.833Z,99.99
2018-11-13T02:18:18.972Z,99.99
2018-11-13T02:19:18.787Z,99.99
2018-11-13T02:20:18.809Z,99.99
2018-11-13T02:21:18.772Z,99.99
2018-11-13T02:22:18.796Z,99.99
2018-11-13T02:23:18.742Z,99.99
2018-11-13T02:24:19.003Z,99.99
2018-11-13T02:25:18.705Z,99.99
2018-11-13T02:26:18.704Z,99.99
2018-11-13T02:27:18.717Z,99.99
2018-11-13T02:28:18.702Z,99.99
2018-11-13T02:29:18.756Z,99.99
2018-11-13T02:30:18.704Z,99.99
2018-11-13T02:31:18.703Z,99.99
2018-11-13T02:32:18.658Z,99.99
2018-11-13T02:33:18.652Z,99.99
2018-11-13T02:34:19.046Z,99.99
2018-11-13T02:35:18.713Z,99.99
2018-11-13T02:36:18.635Z,99.99
2018-11-13T02:37:18.599Z,99.99
2018-11-13T02:38:18.622Z,99.99
2018-11-13T02:39:18.733Z,99.99
2018-11-13T02:40:18.623Z,99.99
2018-11-13T02:41:18.517Z,99.99
2018-11-13T02:42:18.556Z,99.99
2018-11-13T02:43:18.462Z,99.99
2018-11-13T02:44:18.986Z,99.99
2018-11-13T02:45:18.475Z,99.99
2018-11-13T02:46:18.456Z,99.99
2018-11-13T02:47:18.459Z,99.99
2018-11-13T02:48:18.498Z,99.99
2018-11-13T02:49:18.635Z,99.99
2018-11-13T02:50:18.460Z,99.99
2018-11-13T02:51:18.482Z,99.99
2018-11-13T02:52:18.501Z,99.99
2018-11-13T02:53:18.449Z,99.99
2018-11-13T02:54:18.506Z,99.99
2018-11-13T02:55:18.379Z,99.99
2018-11-13T02:56:18.357Z,99.99
2018-11-13T02:57:18.446Z,99.99
2018-11-13T02:58:18.406Z,99.99
2018-11-13T02:59:18.505Z,99.99
2018-11-13T03:00:18.394Z,99.99
2018-11-13T03:01:18.365Z,99.99
2018-11-13T03:02:18.367Z,99.99
2018-11-13T03:03:18.350Z,99.99
2018-11-13T03:04:18.546Z,99.99
2018-11-13T03:05:18.290Z,99.99
2018-11-13T03:06:18.313Z,99.99
2018-11-13T03:07:18.303Z,99.99
2018-11-13T03:08:18.271Z,99.99
2018-11-13T03:09:18.432Z,99.99
2018-11-13T03:10:18.314Z,99.99
2018-11-13T03:11:18.280Z,99.99
2018-11-13T03:12:18.250Z,99.99
2018-11-13T03:13:18.223Z,99.99
2018-11-13T03:14:18.231Z,99.99
2018-11-13T03:15:18.328Z,99.99
2018-11-13T03:16:18.189Z,99.99
2018-11-13T03:17:18.196Z,99.99
2018-11-13T03:18:18.202Z,99.99
2018-11-13T03:19:18.196Z,99.99
2018-11-13T03:20:18.338Z,99.99
2018-11-13T03:21:18.158Z,99.99
2018-11-13T03:22:18.183Z,99.99
2018-11-13T03:23:18.146Z,99.99
2018-11-13T03:24:18.079Z,99.99
2018-11-13T03:25:18.213Z,99.99
2018-11-13T03:26:18.134Z,99.99
2018-11-13T03:27:18.095Z,99.99
2018-11-13T03:28:18.099Z,99.99
2018-11-13T03:29:18.092Z,99.99
2018-11-13T03:30:18.506Z,99.99
2018-11-13T03:31:18.186Z,99.99
2018-11-13T03:32:17.994Z,99.99
2018-11-13T03:33:18.017Z,99.99
2018-11-13T03:34:17.952Z,99.99
2018-11-13T03:35:17.969Z,99.99
2018-11-13T03:36:17.987Z,99.99
2018-11-13T03:37:18.003Z,99.99
2018-11-13T03:38:17.973Z,99.99
2018-11-13T03:39:17.988Z,99.99
2018-11-13T03:40:18.032Z,99.99
2018-11-13T03:41:17.920Z,99.99
2018-11-13T03:42:17.872Z,99.99
2018-11-13T03:43:17.912Z,99.99
2018-11-13T03:44:17.825Z,99.99
2018-11-13T03:45:17.968Z,99.99
2018-11-13T03:46:17.909Z,99.99
2018-11-13T03:47:17.882Z,99.99
2018-11-13T03:48:17.863Z,99.99
2018-11-13T03:49:17.868Z,99.99
2018-11-13T03:50:17.945Z,99.93
2018-11-13T03:51:17.821Z,99.99
2018-11-13T03:52:17.818Z,99.99
2018-11-13T03:53:17.796Z,99.99
2018-11-13T03:54:17.807Z,99.99
2018-11-13T03:55:17.889Z,99.99
2018-11-13T03:56:17.798Z,99.99
2018-11-13T03:57:17.780Z,99.99
2018-11-13T03:58:17.760Z,99.99
2018-11-13T03:59:17.732Z,99.99
2018-11-13T04:00:17.883Z,99.52
2018-11-13T04:01:17.713Z,99.93
2018-11-13T04:02:17.712Z,99.99
2018-11-13T04:03:17.653Z,99.99
2018-11-13T04:04:17.705Z,99.99
2018-11-13T04:05:17.781Z,99.99
2018-11-13T04:06:17.642Z,99.93
2018-11-13T04:07:17.672Z,99.52
2018-11-13T04:08:17.637Z,99.63
2018-11-13T04:09:17.617Z,99.99
2018-11-13T04:10:17.736Z,99.99
2018-11-13T04:11:17.635Z,99.63
2018-11-13T04:12:17.559Z,99.99
2018-11-13T04:13:17.603Z,99.99
2018-11-13T04:14:17.549Z,99.83
2018-11-13T04:15:17.666Z,99.79
2018-11-13T04:16:17.578Z,99.93
2018-11-13T04:17:17.541Z,99.99
2018-11-13T04:18:17.544Z,99.99
2018-11-13T04:19:17.499Z,99.99
2018-11-13T04:20:17.539Z,99.93
2018-11-13T04:21:17.517Z,99.99
2018-11-13T04:22:17.489Z,99.99
2018-11-13T04:23:17.521Z,99.99
2018-11-13T04:24:17.484Z,99.99
2018-11-13T04:25:17.544Z,99.99
2018-11-13T04:26:17.453Z,99.99
2018-11-13T04:27:17.457Z,99.99
2018-11-13T04:28:17.456Z,99.99
2018-11-13T04:29:17.421Z,99.99
2018-11-13T04:30:17.518Z,99.99
2018-11-13T04:31:17.363Z,99.83
2018-11-13T04:32:17.263Z,99.99
2018-11-13T04:33:17.397Z,99.68
2018-11-13T04:34:17.391Z,99.48
2018-11-13T04:35:17.466Z,99.38
2018-11-13T04:36:17.342Z,99.27
2018-11-13T04:37:17.312Z,99.63
2018-11-13T04:38:17.343Z,99.42
2018-11-13T04:39:17.292Z,99.07
2018-11-13T04:40:17.320Z,98.86
2018-11-13T04:41:17.416Z,99.11
2018-11-13T04:42:17.255Z,99.21
2018-11-13T04:43:17.233Z,98.66
2018-11-13T04:44:17.220Z,98.45
2018-11-13T04:45:17.244Z,98.66
2018-11-13T04:46:17.506Z,98.66
2018-11-13T04:47:17.192Z,98.76
2018-11-13T04:48:17.209Z,99.38
2018-11-13T04:49:17.044Z,99.58
2018-11-13T04:50:17.132Z,99.52
2018-11-13T04:51:17.299Z,99.63
2018-11-13T04:52:17.166Z,99.42
2018-11-13T04:53:17.137Z,98.55
2018-11-13T04:54:17.109Z,98.76
2018-11-13T04:55:17.143Z,98.45
2018-11-13T04:56:17.538Z,98.76
2018-11-13T04:57:17.091Z,98.55
2018-11-13T04:58:17.120Z,98.55
2018-11-13T04:59:17.111Z,98.91
2018-11-13T05:00:17.096Z,98.91
2018-11-13T05:01:17.552Z,98.66
2018-11-13T05:02:17.084Z,98.29
2018-11-13T05:03:17.025Z,98.96
2018-11-13T05:04:17.068Z,99.07
2018-11-13T05:05:17.008Z,98.66
2018-11-13T05:06:17.157Z,98.86
2018-11-13T05:07:17.022Z,98.55
2018-11-13T05:08:16.894Z,98.55
2018-11-13T05:09:17.006Z,98.70
2018-11-13T05:10:16.952Z,98.45
2018-11-13T05:11:16.979Z,98.50
2018-11-13T05:12:16.959Z,98.66
2018-11-13T05:13:16.886Z,98.25
2018-11-13T05:14:16.967Z,98.55
2018-11-13T05:15:16.830Z,98.76
2018-11-13T05:16:17.083Z,98.55
2018-11-13T05:17:16.925Z,98.80
2018-11-13T05:18:16.880Z,98.76
2018-11-13T05:19:16.855Z,98.39
2018-11-13T05:20:16.897Z,98.96
2018-11-13T05:21:17.014Z,99.52
2018-11-13T05:22:16.887Z,99.52
2018-11-13T05:23:16.818Z,99.52
2018-11-13T05:24:16.861Z,99.11
2018-11-13T05:25:16.812Z,99.07
2018-11-13T05:26:17.094Z,99.17
2018-11-13T05:27:16.799Z,99.21
2018-11-13T05:28:16.812Z,99.32
2018-11-13T05:29:16.800Z,99.32
2018-11-13T05:30:16.796Z,99.17
2018-11-13T05:31:17.054Z,99.11
2018-11-13T05:32:16.799Z,98.39
2018-11-13T05:33:16.683Z,98.66
2018-11-13T05:34:16.638Z,98.55
2018-11-13T05:35:16.723Z,98.39
2018-11-13T05:36:16.820Z,99.21
2018-11-13T05:37:16.714Z,99.42
2018-11-13T05:38:16.716Z,99.42
2018-11-13T05:39:16.691Z,98.91
2018-11-13T05:40:16.678Z,98.45
2018-11-13T05:41:16.703Z,98.76
2018-11-13T05:42:16.652Z,98.50
2018-11-13T05:43:16.517Z,98.91
2018-11-13T05:44:16.476Z,98.70
2018-11-13T05:45:16.527Z,98.70
2018-11-13T05:46:16.966Z,98.91
2018-11-13T05:47:17.555Z,98.50
2018-11-13T05:48:16.448Z,98.80
2018-11-13T05:49:16.436Z,98.76
2018-11-13T05:50:16.410Z,99.11
2018-11-13T05:51:16.390Z,99.01
2018-11-13T05:52:37.432Z,98.60
2018-11-13T05:53:16.396Z,98.80
2018-11-13T05:54:16.511Z,97.88
2018-11-13T05:55:16.534Z,98.08
2018-11-13T05:56:16.392Z,98.08
2018-11-13T05:57:16.380Z,98.60
2018-11-13T05:58:16.323Z,98.39
2018-11-13T05:59:16.299Z,98.50
2018-11-13T06:00:16.326Z,98.54
2018-11-13T06:01:16.328Z,98.29
2018-11-13T06:02:16.281Z,98.39
2018-11-13T06:03:16.237Z,98.70
2018-11-13T06:04:16.223Z,98.50
2018-11-13T06:05:16.210Z,98.91
2018-11-13T06:06:16.203Z,98.91
2018-11-13T06:07:16.207Z,98.39
2018-11-13T06:08:16.219Z,98.08
2018-11-13T06:09:16.185Z,98.29
2018-11-13T06:10:16.160Z,97.99
2018-11-13T06:11:16.147Z,98.08
2018-11-13T06:12:16.155Z,98.19
2018-11-13T06:13:16.126Z,97.99
2018-11-13T06:14:16.201Z,97.99
2018-11-13T06:15:16.125Z,98.33
2018-11-13T06:16:16.096Z,98.03
2018-11-13T06:17:16.116Z,98.19
2018-11-13T06:18:16.394Z,97.88
2018-11-13T06:19:16.261Z,98.19
2018-11-13T06:20:16.249Z,97.99
2018-11-13T06:21:16.226Z,98.08
2018-11-13T06:22:16.312Z,98.33
2018-11-13T06:23:16.189Z,97.72
2018-11-13T06:24:16.168Z,98.13
2018-11-13T06:25:16.079Z,98.24
2018-11-13T06:26:16.008Z,98.24
2018-11-13T06:27:16.172Z,98.03
2018-11-13T06:28:15.998Z,98.03
2018-11-13T06:29:15.979Z,98.24
2018-11-13T06:30:15.990Z,97.82
2018-11-13T06:31:15.986Z,97.82
2018-11-13T06:32:15.988Z,97.92
2018-11-13T06:33:15.985Z,97.92
2018-11-13T06:34:15.933Z,98.03
2018-11-13T06:35:15.964Z,98.13
2018-11-13T06:36:15.957Z,98.13
2018-11-13T06:37:16.027Z,98.24
2018-11-13T06:38:15.948Z,97.82
2018-11-13T06:39:15.892Z,98.03
2018-11-13T06:40:15.947Z,97.41
2018-11-13T06:41:15.985Z,97.92
2018-11-13T06:42:16.488Z,97.82
2018-11-13T06:43:15.975Z,98.13
2018-11-13T06:44:15.991Z,97.52
2018-11-13T06:45:15.917Z,97.52
2018-11-13T06:46:15.979Z,97.52
2018-11-13T06:47:16.022Z,97.82
2018-11-13T06:48:15.927Z,98.07
2018-11-13T06:49:15.919Z,97.72
2018-11-13T06:50:15.887Z,98.03
2018-11-13T06:51:15.876Z,98.03
2018-11-13T06:52:16.091Z,97.66
2018-11-13T06:53:15.865Z,97.72
2018-11-13T06:54:15.887Z,97.82
2018-11-13T06:55:15.865Z,97.87
2018-11-13T06:56:15.875Z,97.77
2018-11-13T06:57:15.820Z,97.87
2018-11-13T06:58:15.883Z,97.82
2018-11-13T06:59:15.700Z,97.87
2018-11-13T07:00:15.820Z,98.07
2018-11-13T07:01:15.823Z,97.66
2018-11-13T07:02:15.775Z,97.45
2018-11-13T07:03:15.914Z,97.82
2018-11-13T07:04:15.754Z,98.07
2018-11-13T07:05:15.891Z,97.77
2018-11-13T07:06:15.705Z,97.87
2018-11-13T07:07:15.698Z,97.97
2018-11-13T07:08:15.860Z,97.77
2018-11-13T07:09:15.530Z,97.66
2018-11-13T07:10:15.691Z,97.97
2018-11-13T07:11:15.769Z,97.77
2018-11-13T07:12:15.696Z,97.56
2018-11-13T07:13:15.729Z,97.97
2018-11-13T07:14:15.635Z,98.07
2018-11-13T07:15:15.660Z,98.07
2018-11-13T07:16:15.641Z,98.18
2018-11-13T07:17:15.623Z,97.87
2018-11-13T07:18:15.799Z,97.97
2018-11-13T07:19:15.608Z,98.38
2018-11-13T07:20:15.623Z,98.38
2018-11-13T07:21:15.599Z,98.38
2018-11-13T07:22:15.476Z,98.49
2018-11-13T07:23:15.684Z,97.97
2018-11-13T07:24:15.557Z,98.07
2018-11-13T07:25:15.579Z,97.87
2018-11-13T07:26:15.512Z,98.38
2018-11-13T07:27:15.539Z,98.28
2018-11-13T07:28:15.456Z,97.97
2018-11-13T07:29:15.517Z,98.28
2018-11-13T07:30:15.488Z,98.07
2018-11-13T07:31:15.451Z,98.07
2018-11-13T07:32:15.482Z,98.07
2018-11-13T07:33:15.582Z,97.77
2018-11-13T07:34:15.521Z,98.18
2018-11-13T07:35:15.407Z,97.97
2018-11-13T07:36:15.395Z,98.38
2018-11-13T07:37:15.423Z,98.28
2018-11-13T07:38:15.509Z,98.49
2018-11-13T07:39:15.370Z,98.07
2018-11-13T07:40:15.368Z,97.92
2018-11-13T07:41:15.415Z,98.24
2018-11-13T07:42:15.277Z,97.82
2018-11-13T07:43:15.432Z,97.52
2018-11-13T07:44:15.351Z,96.34
2018-11-13T07:45:15.299Z,96.55
2018-11-13T07:46:15.314Z,96.91
2018-11-13T07:47:15.335Z,96.23
2018-11-13T07:48:15.386Z,95.93
2018-11-13T07:49:15.196Z,96.19
2018-11-13T07:50:15.284Z,95.98
2018-11-13T07:51:15.412Z,95.78
2018-11-13T07:52:15.277Z,95.37
2018-11-13T07:53:15.381Z,95.68
2018-11-13T07:54:15.230Z,95.68
2018-11-13T07:55:15.102Z,95.98
2018-11-13T07:56:15.189Z,96.09
2018-11-13T07:57:15.212Z,95.47
2018-11-13T07:58:15.276Z,95.43
2018-11-13T07:59:15.118Z,95.89
2018-11-13T08:00:15.141Z,95.47
2018-11-13T08:01:15.160Z,95.47
2018-11-13T08:02:15.169Z,96.09
2018-11-13T08:03:15.309Z,95.74
2018-11-13T08:04:15.114Z,95.68
2018-11-13T08:05:15.055Z,95.84
2018-11-13T08:06:15.107Z,95.43
2018-11-13T08:07:15.151Z,94.92
2018-11-13T08:08:15.132Z,94.61
2018-11-13T08:09:15.093Z,94.40
2018-11-13T08:10:15.048Z,94.46
2018-11-13T08:11:14.999Z,94.77
2018-11-13T08:12:15.070Z,94.56
2018-11-13T08:13:15.244Z,94.51
2018-11-13T08:14:15.052Z,94.15
2018-11-13T08:15:14.996Z,94.51
2018-11-13T08:16:14.973Z,95.07
2018-11-13T08:17:14.999Z,94.30
2018-11-13T08:18:14.976Z,94.51
2018-11-13T08:19:15.111Z,94.36
2018-11-13T08:20:14.929Z,94.20
2018-11-13T08:21:14.959Z,94.46
2018-11-13T08:22:14.938Z,94.67
2018-11-13T08:23:14.904Z,93.85
2018-11-13T08:24:14.962Z,93.33
2018-11-13T08:25:14.855Z,93.44
2018-11-13T08:26:14.959Z,94.36
2018-11-13T08:27:14.737Z,94.15
2018-11-13T08:28:14.893Z,94.56
2018-11-13T08:29:14.972Z,94.15
2018-11-13T08:30:14.836Z,94.36
2018-11-13T08:31:14.789Z,94.15
2018-11-13T08:32:14.785Z,93.74
2018-11-13T08:33:14.848Z,93.54
2018-11-13T08:34:14.784Z,93.74
2018-11-13T08:35:14.756Z,93.33
2018-11-13T08:36:14.760Z,93.64
2018-11-13T08:37:14.788Z,93.74
2018-11-13T08:38:14.659Z,93.44
2018-11-13T08:39:14.810Z,94.15
2018-11-13T08:40:14.763Z,94.26
2018-11-13T08:41:14.747Z,93.33
2018-11-13T08:42:14.706Z,94.40
2018-11-13T08:43:14.645Z,94.30
2018-11-13T08:44:14.884Z,94.36
2018-11-13T08:45:14.693Z,93.79
2018-11-13T08:46:14.645Z,93.59
2018-11-13T08:47:14.657Z,94.30
2018-11-13T08:48:14.627Z,94.76
2018-11-13T08:49:14.762Z,94.92
2018-11-13T08:50:14.624Z,94.45
2018-11-13T08:51:14.591Z,94.34
2018-11-13T08:52:14.606Z,94.85
2018-11-13T08:53:14.523Z,94.10
2018-11-13T08:54:14.667Z,94.71
2018-11-13T08:55:14.560Z,94.51
2018-11-13T08:56:14.489Z,94.40
2018-11-13T08:57:14.558Z,94.61
2018-11-13T08:58:14.576Z,94.40
2018-11-13T08:59:14.832Z,93.59
2018-11-13T09:00:14.468Z,93.68
2018-11-13T09:01:14.465Z,93.38
2018-11-13T09:02:14.447Z,93.68
2018-11-13T09:03:14.452Z,93.59
2018-11-13T09:04:14.561Z,93.79
2018-11-13T09:05:14.649Z,94.51
2018-11-13T09:06:14.456Z,94.20
2018-11-13T09:07:14.400Z,93.74
2018-11-13T09:08:14.415Z,93.64
2018-11-13T09:09:14.501Z,93.23
2018-11-13T09:10:14.392Z,93.68
2018-11-13T09:11:14.378Z,93.48
2018-11-13T09:12:14.383Z,93.33
2018-11-13T09:13:14.398Z,93.54
2018-11-13T09:14:14.441Z,93.74
2018-11-13T09:15:14.328Z,93.64
2018-11-13T09:16:14.316Z,94.05
2018-11-13T09:17:14.294Z,93.95
2018-11-13T09:18:14.309Z,93.33
2018-11-13T09:19:14.477Z,93.33
2018-11-13T09:20:14.308Z,93.54
2018-11-13T09:21:14.287Z,93.74
2018-11-13T09:22:14.235Z,93.70
2018-11-13T09:23:14.096Z,92.72
2018-11-13T09:24:14.111Z,93.23
2018-11-13T09:25:14.071Z,92.98
2018-11-13T09:26:14.069Z,92.31
2018-11-13T09:27:14.050Z,92.41
2018-11-13T09:28:14.048Z,93.13
2018-11-13T09:29:14.040Z,93.39
2018-11-13T09:30:14.246Z,93.08
2018-11-13T09:31:14.022Z,92.88
2018-11-13T09:32:14.012Z,93.15
2018-11-13T09:33:13.991Z,93.45
2018-11-13T09:34:13.983Z,93.55
2018-11-13T09:35:14.065Z,92.53
2018-11-13T09:36:13.973Z,92.63
2018-11-13T09:37:13.948Z,93.41
2018-11-13T09:38:13.933Z,91.61
2018-11-13T09:39:13.947Z,91.30
2018-11-13T09:40:14.295Z,91.05
2018-11-13T09:41:13.898Z,91.87
2018-11-13T09:42:13.917Z,91.61
2018-11-13T09:43:13.877Z,91.30
2018-11-13T09:44:13.866Z,91.40
2018-11-13T09:45:13.869Z,90.69
2018-11-13T09:46:13.849Z,90.44
2018-11-13T09:47:13.834Z,90.84
2018-11-13T09:48:13.828Z,90.54
2018-11-13T09:49:13.810Z,90.13
2018-11-13T09:50:13.865Z,90.13
2018-11-13T09:51:13.793Z,90.03
2018-11-13T09:52:13.780Z,90.34
2018-11-13T09:53:13.805Z,90.34
2018-11-13T09:54:13.774Z,90.23
2018-11-13T09:55:13.766Z,89.92
2018-11-13T09:56:13.748Z,90.44
2018-11-13T09:57:13.748Z,90.23
2018-11-13T09:58:13.714Z,90.84
2018-11-13T09:59:13.703Z,89.62
2018-11-13T10:00:13.914Z,90.23
2018-11-13T10:01:14.201Z,90.13
2018-11-13T10:02:14.314Z,90.34
2018-11-13T10:03:14.459Z,90.54
2018-11-13T10:04:14.247Z,90.91
2018-11-13T10:05:14.295Z,90.34
2018-11-13T10:06:13.671Z,90.03
2018-11-13T10:07:13.626Z,89.72
2018-11-13T10:08:13.614Z,90.34
2018-11-13T10:09:13.620Z,91.05
2018-11-13T10:10:13.859Z,90.34
2018-11-13T10:11:13.582Z,90.37
2018-11-13T10:12:13.598Z,90.34
2018-11-13T10:13:13.556Z,90.34
2018-11-13T10:14:13.539Z,90.54
2018-11-13T10:15:13.546Z,90.39
2018-11-13T10:16:13.538Z,89.21
2018-11-13T10:17:13.548Z,89.51
2018-11-13T10:18:13.634Z,90.34
2018-11-13T10:19:13.486Z,88.39
2018-11-13T10:20:13.512Z,88.49
2018-11-13T10:21:13.469Z,88.90
2018-11-13T10:22:13.464Z,89.00
2018-11-13T10:23:13.462Z,89.83
2018-11-13T10:24:14.264Z,89.42
2018-11-13T10:25:13.442Z,88.70
2018-11-13T10:26:13.471Z,89.11
2018-11-13T10:27:13.502Z,88.65
2018-11-13T10:28:13.424Z,88.80
2018-11-13T10:29:13.381Z,88.49
2018-11-13T10:30:13.403Z,88.29
2018-11-13T10:31:13.370Z,89.62
2018-11-13T10:32:14.268Z,88.80
2018-11-13T10:33:13.360Z,88.70
2018-11-13T10:34:13.331Z,89.17
2018-11-13T10:35:13.345Z,88.70
2018-11-13T10:36:13.328Z,88.24
2018-11-13T10:37:13.308Z,88.39
2018-11-13T10:38:13.289Z,87.88
2018-11-13T10:39:13.313Z,87.63
2018-11-13T10:40:13.875Z,87.94
2018-11-13T10:41:14.831Z,86.75
2018-11-13T10:42:14.781Z,86.81
2018-11-13T10:43:13.231Z,87.53
2018-11-13T10:44:14.786Z,87.67
2018-11-13T10:45:16.342Z,87.84
2018-11-13T10:46:13.200Z,87.22
2018-11-13T10:47:13.203Z,86.61
2018-11-13T10:48:13.180Z,86.20
2018-11-13T10:49:13.289Z,86.51
2018-11-13T10:50:13.291Z,86.30
2018-11-13T10:51:13.768Z,86.71
2018-11-13T10:52:13.133Z,86.44
2018-11-13T10:53:13.120Z,86.34
2018-11-13T10:54:13.116Z,86.34
2018-11-13T10:55:13.122Z,85.69
2018-11-13T10:56:13.133Z,85.79
2018-11-13T10:57:13.085Z,85.17
2018-11-13T10:58:13.068Z,85.58
2018-11-13T10:59:13.782Z,84.31
2018-11-13T11:00:13.073Z,84.83
2018-11-13T11:01:13.764Z,84.83
2018-11-13T11:02:13.771Z,85.44
2018-11-13T11:03:13.033Z,85.24
2018-11-13T11:04:13.767Z,85.64
2018-11-13T11:05:13.796Z,84.83
2018-11-13T11:06:14.054Z,84.31
2018-11-13T11:07:12.972Z,84.63
2018-11-13T11:08:13.025Z,84.42
2018-11-13T11:09:12.950Z,83.09
2018-11-13T11:10:12.940Z,84.77
2018-11-13T11:11:12.989Z,83.64
2018-11-13T11:12:12.930Z,84.77
2018-11-13T11:13:13.145Z,84.66
2018-11-13T11:14:12.902Z,83.95
2018-11-13T11:15:12.886Z,85.07
2018-11-13T11:16:13.801Z,82.92
2018-11-13T11:17:12.866Z,85.28
2018-11-13T11:18:15.862Z,84.72
2018-11-13T11:19:12.897Z,84.15
2018-11-13T11:20:12.838Z,85.69
2018-11-13T11:21:14.781Z,85.58
2018-11-13T11:22:13.766Z,85.28
2018-11-13T11:23:12.807Z,84.36
2018-11-13T11:24:15.871Z,84.36
2018-11-13T11:25:13.845Z,86.51
2018-11-13T11:26:12.792Z,84.05
2018-11-13T11:27:12.754Z,83.84
2018-11-13T11:28:12.782Z,84.46
2018-11-13T11:29:19.276Z,85.07
2018-11-13T11:30:12.727Z,83.81
2018-11-13T11:31:12.732Z,83.29
2018-11-13T11:32:14.282Z,83.70
2018-11-13T11:33:13.275Z,83.70
2018-11-13T11:34:13.270Z,83.50
2018-11-13T11:35:12.679Z,82.78
2018-11-13T11:36:12.689Z,81.96
2018-11-13T11:37:12.648Z,82.78
2018-11-13T11:38:12.641Z,82.68
2018-11-13T11:39:12.730Z,81.65
2018-11-13T11:40:12.618Z,82.27
2018-11-13T11:41:12.630Z,80.12
2018-11-13T11:42:12.601Z,81.96
2018-11-13T11:43:12.594Z,82.95
2018-11-13T11:44:12.634Z,82.95
2018-11-13T11:45:14.269Z,81.76
2018-11-13T11:46:12.789Z,82.17
2018-11-13T11:47:12.551Z,81.59
2018-11-13T11:48:12.534Z,81.08
2018-11-13T11:49:13.524Z,82.31
2018-11-13T11:50:12.511Z,82.10
2018-11-13T11:51:17.792Z,83.84
2018-11-13T11:52:12.488Z,83.13
2018-11-13T11:53:12.482Z,84.25
2018-11-13T11:54:14.289Z,83.06
2018-11-13T11:55:13.278Z,84.29
2018-11-13T11:56:12.458Z,83.88
2018-11-13T11:57:12.433Z,84.87
2018-11-13T11:58:13.276Z,84.05
2018-11-13T11:59:12.420Z,82.82
2018-11-13T12:00:12.409Z,82.82
2018-11-13T12:01:12.412Z,82.21
2018-11-13T12:02:14.396Z,82.62
2018-11-13T12:03:12.373Z,81.90
2018-11-13T12:04:12.367Z,82.62
2018-11-13T12:05:15.271Z,83.03
2018-11-13T12:06:12.797Z,82.10
2018-11-13T12:07:12.340Z,82.00
2018-11-13T12:08:12.314Z,81.79
2018-11-13T12:09:12.310Z,81.49
2018-11-13T12:10:12.294Z,81.90
2018-11-13T12:11:12.282Z,82.92
2018-11-13T12:12:12.309Z,81.63
2018-11-13T12:13:12.820Z,82.96
2018-11-13T12:14:12.256Z,83.13
2018-11-13T12:15:12.247Z,82.86
2018-11-13T12:16:12.236Z,82.51
2018-11-13T12:17:19.286Z,83.03
2018-11-13T12:18:12.216Z,82.65
2018-11-13T12:19:12.260Z,83.88
2018-11-13T12:20:12.195Z,82.71
2018-11-13T12:21:12.178Z,83.17
2018-11-13T12:22:12.196Z,82.45
2018-11-13T12:23:12.160Z,83.58
2018-11-13T12:24:12.153Z,83.37
2018-11-13T12:25:12.133Z,83.88
2018-11-13T12:26:12.767Z,82.92
2018-11-13T12:27:12.141Z,84.29
2018-11-13T12:28:12.106Z,84.50
2018-11-13T12:29:12.092Z,85.72
2018-11-13T12:30:12.124Z,85.22
2018-11-13T12:31:12.078Z,85.63
2018-11-13T12:32:12.072Z,86.34
2018-11-13T12:33:13.788Z,85.11
2018-11-13T12:34:12.770Z,84.80
2018-11-13T12:35:12.027Z,85.22
2018-11-13T12:36:12.037Z,85.11
2018-11-13T12:37:12.018Z,84.39
2018-11-13T12:38:12.768Z,82.96
2018-11-13T12:39:12.784Z,85.72
2018-11-13T12:40:11.971Z,84.60
2018-11-13T12:41:13.788Z,85.52
2018-11-13T12:42:11.962Z,83.98
2018-11-13T12:43:11.939Z,83.13
2018-11-13T12:44:13.802Z,82.21
2018-11-13T12:45:11.926Z,83.13
2018-11-13T12:46:11.909Z,83.13
2018-11-13T12:47:11.917Z,82.92
2018-11-13T12:48:13.772Z,82.89
2018-11-13T12:49:15.043Z,82.31
2018-11-13T12:50:11.888Z,82.21
2018-11-13T12:51:12.818Z,82.21
2018-11-13T12:52:11.853Z,82.51